Time;durP1;ratioP1;P1;durP2;ratioP2;P2;SDS_P1;SDS_P2;PMS_P1;PMS_P2;Temp;Humidity;BMP_temperature;BMP_pressure;BME280_temperature;BME280_humidity;BME280_pressure;Samples;Min_cycle;Max_cycle;Signal;HPM_P1;HPM_P2
2022/10/14 00:00:13;;;;;;;;;;;;;;;;;;5012095;28;7219;-86
2022/10/14 00:02:38;;;;;;;;;;;;;;;;;;5013114;28;8438;-86
2022/10/14 00:05:04;;;;;;;;;;;;;;;;;;5013497;28;8656;-83
2022/10/14 00:07:29;;;;;;;;;;;;;;;;;;5013760;28;8316;-87
2022/10/14 00:09:55;;;;;;;;;;;;;;;;;;5013251;28;7015;-85
2022/10/14 00:12:20;;;;;;;;;;;;;;;;;;5013213;28;8381;-86
2022/10/14 00:14:45;;;;;;;;;;;;;;;;;;5013678;28;8397;-86
2022/10/14 00:17:11;;;;;;;;;;;;;;;;;;5012898;28;8446;-84
2022/10/14 00:19:37;;;;;;;;;;;;;;;;;;5012414;28;8733;-86
2022/10/14 00:22:02;;;;;;;;;;;;;;;;;;5014777;28;8414;-85
2022/10/14 00:24:28;;;;;;;;;;;;;;;;;;5016555;28;7150;-85
2022/10/14 00:26:53;;;;;;;;;;;;;;;;;;5017193;28;8363;-85
2022/10/14 00:29:18;;;;;;;;;;;;;;;;;;5016672;28;7115;-81
2022/10/14 00:31:44;;;;;;;;;;;;;;;;;;5015362;28;7148;-83
2022/10/14 00:34:11;;;;;;;;;;;;;;;;;;5015992;28;6815;-84
2022/10/14 00:36:39;;;;;;;;;;;;;;;;;;5016575;28;7362;-81
2022/10/14 00:39:04;;;;;;;;;;;;;;;;;;5017115;28;8320;-85
2022/10/14 00:41:31;;;;;;;;;;;;;;;;;;5017071;28;8313;-84
2022/10/14 00:44:02;;;;;;;;;;;;;;;;;;5017390;28;8727;-85
2022/10/14 00:46:33;;;;;;;;;;;;;;;;;;5015634;28;7229;-85
2022/10/14 00:49:02;;;;;;;;;;;;;;;;;;5015364;28;7066;-86
2022/10/14 00:51:27;;;;;;;;;;;;;;;;;;5021075;28;8424;-77
2022/10/14 00:53:53;;;;;;;;;;;;;;;;;;5021669;28;7021;-77
2022/10/14 00:56:23;;;;;;;;;;;;;;;;;;5021822;28;8640;-78
2022/10/14 00:58:48;;;;;;;;;;;;;;;;;;5021965;28;7152;-83
2022/10/14 01:01:14;;;;;;;;;;;;;;;;;;5020320;28;8403;-82
2022/10/14 01:03:40;;;;;;;;;;;;;;;;;;5016933;28;8356;-88
2022/10/14 01:06:18;;;;;;;;;;;;;;;;;;5013696;28;7005;-86
2022/10/14 01:08:52;;;;;;;;;;;;;;;;;;5013488;28;8280;-87
2022/10/14 01:11:36;;;;;;;;;;;;;;;;;;5011598;28;8693;-85
2022/10/14 01:14:11;;;;;;;;;;;;;;;;;;5011051;28;8422;-85
2022/10/14 01:16:43;;;;;;;;;;;;;;;;;;5011309;28;8912;-85
2022/10/14 01:19:09;;;;;;;;;;;;;;;;;;5011270;28;8626;-85
2022/10/14 01:21:46;;;;;;;;;;;;;;;;;;5011189;28;8805;-85
2022/10/14 01:24:35;;;;;;;;;;;;;;;;;;5012766;28;7004;-84
2022/10/14 01:27:10;;;;;;;;;;;;;;;;;;5011035;28;8695;-85
2022/10/14 01:29:54;;;;;;;;;;;;;;;;;;5011332;28;8535;-85
2022/10/14 01:32:20;;;;;;;;;;;;;;;;;;5011076;28;7186;-85
2022/10/14 01:34:53;;;;;;;;;;;;;;;;;;5010379;28;7019;-85
2022/10/14 01:37:23;;;;;;;;;;;;;;;;;;5010984;28;8376;-86
2022/10/14 01:39:57;;;;;;;;;;;;;;;;;;5010574;28;8423;-86
2022/10/14 01:42:27;;;;;;;;;;;;;;;;;;5010565;28;8719;-86
2022/10/14 01:45:00;;;;;;;;;;;;;;;;;;5010500;28;7170;-85
2022/10/14 01:47:29;;;;;;;;;;;;;;;;;;5010713;28;8608;-85
2022/10/14 01:49:59;;;;;;;;;;;;;;;;;;5010380;28;7152;-86
2022/10/14 01:52:29;;;;;;;;;;;;;;;;;;5010759;28;7036;-84
2022/10/14 01:55:00;;;;;;;;;;;;;;;;;;5010979;28;7184;-87
2022/10/14 01:57:29;;;;;;;;;;;;;;;;;;5010988;28;8417;-85
2022/10/14 01:59:56;;;;;;;;;;;;;;;;;;5012230;28;8615;-85
2022/10/14 02:02:23;;;;;;;;;;;;;;;;;;5011955;28;7306;-84
2022/10/14 02:04:48;;;;;;;;;;;;;;;;;;5011658;28;8468;-85
2022/10/14 02:07:25;;;;;;;;;;;;;;;;;;5013826;28;7132;-85
2022/10/14 02:09:50;;;;;;;;;;;;;;;;;;5015554;28;6945;-86
2022/10/14 02:12:33;;;;;;;;;;;;;;;;;;5017432;28;8668;-83
2022/10/14 02:15:10;;;;;;;;;;;;;;;;;;5016239;28;8364;-87
2022/10/14 02:17:51;;;;;;;;;;;;;;;;;;5015483;28;8333;-85
2022/10/14 02:20:19;;;;;;;;;;;;;;;;;;5014408;28;8461;-86
2022/10/14 02:22:53;;;;;;;;;;;;;;;;;;5014369;28;7160;-86
2022/10/14 02:25:27;;;;;;;;;;;;;;;;;;5014635;28;7337;-83
2022/10/14 02:27:53;;;;;;;;;;;;;;;;;;5013872;28;8408;-86
2022/10/14 02:30:19;;;;;;;;;;;;;;;;;;5014212;28;8358;-85
2022/10/14 02:32:46;;;;;;;;;;;;;;;;;;5013832;28;8517;-86
2022/10/14 02:35:16;;;;;;;;;;;;;;;;;;5013747;28;7517;-86
2022/10/14 02:37:45;;;;;;;;;;;;;;;;;;5014164;28;8452;-86
2022/10/14 02:40:15;;;;;;;;;;;;;;;;;;5014010;28;7177;-86
2022/10/14 02:42:41;;;;;;;;;;;;;;;;;;5000297;28;8665;-85
2022/10/14 02:45:09;;;;;;;;;;;;;;;;;;5017069;28;8614;-85
2022/10/14 02:47:34;;;;;;;;;;;;;;;;;;5016957;28;7277;-83
2022/10/14 02:50:00;;;;;;;;;;;;;;;;;;5001098;28;7076;-85
2022/10/14 02:52:26;;;;;;;;;;;;;;;;;;5016454;28;8366;-85
2022/10/14 02:54:51;;;;;;;;;;;;;;;;;;5016634;28;8485;-85
2022/10/14 02:57:16;;;;;;;;;;;;;;;;;;5016556;28;7354;-84
2022/10/14 02:59:42;;;;;;;;;;;;;;;;;;5016341;28;7214;-86
2022/10/14 03:02:07;;;;;;;;;;;;;;;;;;5017023;28;8687;-86
2022/10/14 03:04:34;;;;;;;;;;;;;;;;;;5016354;28;8695;-85
2022/10/14 03:07:00;;;;;;;;;;;;;;;;;;5016573;28;8465;-83
2022/10/14 03:09:25;;;;;;;;;;;;;;;;;;5016274;28;7220;-85
2022/10/14 03:11:51;;;;;;;;;;;;;;;;;;5016201;28;8363;-84
2022/10/14 03:14:16;;;;;;;;;;;;;;;;;;5016314;28;8362;-87
2022/10/14 03:16:42;;;;;;;;;;;;;;;;;;5016728;28;8536;-86
2022/10/14 03:19:08;;;;;;;;;;;;;;;;;;5015175;28;6810;-85
2022/10/14 03:21:33;;;;;;;;;;;;;;;;;;5015757;28;7149;-84
2022/10/14 03:24:00;;;;;;;;;;;;;;;;;;5015837;28;7024;-86
2022/10/14 03:26:26;;;;;;;;;;;;;;;;;;5015863;28;7172;-85
2022/10/14 03:28:52;;;;;;;;;;;;;;;;;;5016606;28;7148;-85
2022/10/14 03:31:17;;;;;;;;;;;;;;;;;;5015924;28;7023;-83
2022/10/14 03:33:43;;;;;;;;;;;;;;;;;;5016005;28;8887;-85
2022/10/14 03:36:09;;;;;;;;;;;;;;;;;;5016228;28;8583;-84
2022/10/14 03:38:34;;;;;;;;;;;;;;;;;;4999361;28;8319;-85
2022/10/14 03:41:00;;;;;;;;;;;;;;;;;;5016047;28;8134;-85
2022/10/14 03:43:27;;;;;;;;;;;;;;;;;;5016269;28;8706;-86
2022/10/14 03:45:52;;;;;;;;;;;;;;;;;;5015610;28;7040;-85
2022/10/14 03:48:18;;;;;;;;;;;;;;;;;;5015537;28;7196;-86
2022/10/14 03:50:46;;;;;;;;;;;;;;;;;;5015840;28;8708;-85
2022/10/14 03:53:12;;;;;;;;;;;;;;;;;;5015585;28;8382;-84
2022/10/14 03:55:38;;;;;;;;;;;;;;;;;;5015446;28;8467;-85
2022/10/14 03:58:03;;;;;;;;;;;;;;;;;;5015938;28;7359;-83
2022/10/14 04:00:29;;;;;;;;;;;;;;;;;;5015104;28;8399;-85
2022/10/14 04:02:54;;;;;;;;;;;;;;;;;;5016216;28;7231;-85
2022/10/14 04:05:20;;;;;;;;;;;;;;;;;;5015547;28;8389;-83
2022/10/14 04:07:46;;;;;;;;;;;;;;;;;;5015309;28;8440;-85
2022/10/14 04:10:11;;;;;;;;;;;;;;;;;;5015604;28;8737;-85
2022/10/14 04:12:39;;;;;;;;;;;;;;;;;;5015622;28;9375;-85
2022/10/14 04:15:06;;;;;;;;;;;;;;;;;;5015306;28;7054;-84
2022/10/14 04:17:32;;;;;;;;;;;;;;;;;;5015657;28;7191;-85
2022/10/14 04:19:57;;;;;;;;;;;;;;;;;;5015403;28;7057;-83
2022/10/14 04:22:23;;;;;;;;;;;;;;;;;;5015267;28;7026;-85
2022/10/14 04:24:49;;;;;;;;;;;;;;;;;;5015194;28;8640;-85
2022/10/14 04:27:15;;;;;;;;;;;;;;;;;;5014867;28;8703;-85
2022/10/14 04:29:41;;;;;;;;;;;;;;;;;;5014765;28;8438;-85
2022/10/14 04:32:07;;;;;;;;;;;;;;;;;;5015219;28;8393;-85
2022/10/14 04:34:33;;;;;;;;;;;;;;;;;;5015149;28;8439;-85
2022/10/14 04:36:58;;;;;;;;;;;;;;;;;;5014435;28;6884;-85
2022/10/14 04:39:23;;;;;;;;;;;;;;;;;;5008839;28;8617;-84
2022/10/14 04:41:49;;;;;;;;;;;;;;;;;;4986294;28;8708;-82
2022/10/14 04:44:14;;;;;;;;;;;;;;;;;;4994417;28;8426;-82
2022/10/14 04:46:40;;;;;;;;;;;;;;;;;;4991610;28;7025;-85
2022/10/14 04:49:07;;;;;;;;;;;;;;;;;;4991113;28;7163;-84
2022/10/14 04:51:32;;;;;;;;;;;;;;;;;;4991506;28;8416;-85
2022/10/14 04:53:59;;;;;;;;;;;;;;;;;;4991530;28;8399;-85
2022/10/14 04:56:24;;;;;;;;;;;;;;;;;;4991578;28;7182;-84
2022/10/14 04:58:50;;;;;;;;;;;;;;;;;;4991184;28;8408;-84
2022/10/14 05:01:17;;;;;;;;;;;;;;;;;;4990634;28;7122;-83
2022/10/14 05:03:42;;;;;;;;;;;;;;;;;;4991675;28;7182;-84
2022/10/14 05:06:09;;;;;;;;;;;;;;;;;;5001599;28;7409;-82
2022/10/14 05:08:35;;;;;;;;;;;;;;;;;;5003823;28;7026;-83
2022/10/14 05:11:01;;;;;;;;;;;;;;;;;;5004509;28;7057;-84
2022/10/14 05:13:27;;;;;;;;;;;;;;;;;;4990987;28;8466;-82
2022/10/14 05:15:53;;;;;;;;;;;;;;;;;;4990296;28;7173;-82
2022/10/14 05:18:18;;;;;;;;;;;;;;;;;;4989889;28;8494;-83
2022/10/14 05:20:44;;;;;;;;;;;;;;;;;;4989469;28;8287;-83
2022/10/14 05:23:09;;;;;;;;;;;;;;;;;;4990961;28;7134;-84
2022/10/14 05:25:35;;;;;;;;;;;;;;;;;;4990815;28;8513;-85
2022/10/14 05:28:00;;;;;;;;;;;;;;;;;;4990989;28;7104;-85
2022/10/14 05:30:26;;;;;;;;;;;;;;;;;;4991487;28;8605;-86
2022/10/14 05:32:51;;;;;;;;;;;;;;;;;;4991156;28;7095;-87
2022/10/14 05:35:17;;;;;;;;;;;;;;;;;;4990732;28;7243;-84
2022/10/14 05:37:42;;;;;;;;;;;;;;;;;;4998886;28;7192;-86
2022/10/14 05:40:08;;;;;;;;;;;;;;;;;;4999423;28;7163;-85
2022/10/14 05:42:34;;;;;;;;;;;;;;;;;;5000231;28;7245;-84
2022/10/14 05:44:59;;;;;;;;;;;;;;;;;;4998113;28;7156;-82
2022/10/14 05:47:25;;;;;;;;;;;;;;;;;;5001548;28;8422;-84
2022/10/14 05:49:50;;;;;;;;;;;;;;;;;;5000512;28;9335;-84
2022/10/14 05:52:16;;;;;;;;;;;;;;;;;;5000587;28;8523;-86
2022/10/14 05:54:42;;;;;;;;;;;;;;;;;;5010461;28;7053;-88
2022/10/14 05:57:07;;;;;;;;;;;;;;;;;;4999829;28;8292;-85
2022/10/14 05:59:33;;;;;;;;;;;;;;;;;;5001109;28;7177;-85
2022/10/14 06:02:00;;;;;;;;;;;;;;;;;;5006455;28;7055;-85
2022/10/14 06:04:25;;;;;;;;;;;;;;;;;;4999135;28;7076;-81
2022/10/14 06:06:50;;;;;;;;;;;;;;;;;;4991827;28;7497;-80
2022/10/14 06:09:16;;;;;;;;;;;;;;;;;;4989341;28;8429;-82
2022/10/14 06:11:42;;;;;;;;;;;;;;;;;;4990506;28;8816;-83
2022/10/14 06:14:07;;;;;;;;;;;;;;;;;;4990499;28;8394;-84
2022/10/14 06:16:33;;;;;;;;;;;;;;;;;;4990167;28;9414;-83
2022/10/14 06:18:58;;;;;;;;;;;;;;;;;;4990447;28;7012;-82
2022/10/14 06:21:25;;;;;;;;;;;;;;;;;;4990821;28;8545;-85
2022/10/14 06:23:50;;;;;;;;;;;;;;;;;;4989960;28;8589;-85
2022/10/14 06:26:16;;;;;;;;;;;;;;;;;;4990532;28;9214;-84
2022/10/14 06:28:41;;;;;;;;;;;;;;;;;;4990898;28;8792;-84
2022/10/14 06:31:07;;;;;;;;;;;;;;;;;;4991098;28;7124;-84
2022/10/14 06:33:33;;;;;;;;;;;;;;;;;;4990231;28;8258;-84
2022/10/14 06:36:00;;;;;;;;;;;;;;;;;;4990970;28;8692;-82
2022/10/14 06:38:26;;;;;;;;;;;;;;;;;;4990769;28;7250;-84
2022/10/14 06:40:52;;;;;;;;;;;;;;;;;;4990134;28;8390;-85
2022/10/14 06:43:18;;;;;;;;;;;;;;;;;;4990759;28;8788;-84
2022/10/14 06:45:43;;;;;;;;;;;;;;;;;;4990896;28;8420;-84
2022/10/14 06:48:09;;;;;;;;;;;;;;;;;;4991006;28;7266;-83
2022/10/14 06:50:35;;;;;;;;;;;;;;;;;;4990237;28;8417;-86
2022/10/14 06:53:01;;;;;;;;;;;;;;;;;;4992934;28;7163;-86
2022/10/14 06:55:26;;;;;;;;;;;;;;;;;;4994210;28;8523;-87
2022/10/14 06:57:52;;;;;;;;;;;;;;;;;;4994050;28;8438;-86
2022/10/14 07:00:30;;;;;;;;;;;;;;;;;;4994524;28;7003;-85
2022/10/14 07:02:58;;;;;;;;;;;;;;;;;;4994392;28;8385;-85
2022/10/14 07:05:23;;;;;;;;;;;;;;;;;;4994114;28;7186;-86
2022/10/14 07:07:49;;;;;;;;;;;;;;;;;;4993585;28;7062;-85
2022/10/14 07:10:15;;;;;;;;;;;;;;;;;;4994031;28;8592;-84
2022/10/14 07:12:40;;;;;;;;;;;;;;;;;;4993937;28;7015;-83
2022/10/14 07:15:06;;;;;;;;;;;;;;;;;;4993586;28;7133;-83
2022/10/14 07:17:32;;;;;;;;;;;;;;;;;;4993958;28;8355;-82
2022/10/14 07:19:58;;;;;;;;;;;;;;;;;;4994060;28;7132;-83
2022/10/14 07:22:23;;;;;;;;;;;;;;;;;;4993528;28;9399;-83
2022/10/14 07:24:49;;;;;;;;;;;;;;;;;;4993266;28;7017;-83
2022/10/14 07:27:15;;;;;;;;;;;;;;;;;;4993153;28;7174;-83
2022/10/14 07:29:42;;;;;;;;;;;;;;;;;;4993356;28;7024;-83
2022/10/14 07:32:07;;;;;;;;;;;;;;;;;;4993869;28;7180;-81
2022/10/14 07:34:33;;;;;;;;;;;;;;;;;;4993714;28;8315;-83
2022/10/14 07:36:59;;;;;;;;;;;;;;;;;;4994347;28;7117;-82
2022/10/14 07:39:26;;;;;;;;;;;;;;;;;;4993240;28;7034;-85
2022/10/14 07:41:52;;;;;;;;;;;;;;;;;;4993292;28;8596;-83
2022/10/14 07:44:19;;;;;;;;;;;;;;;;;;4993133;28;8453;-83
2022/10/14 07:46:45;;;;;;;;;;;;;;;;;;4992841;28;8316;-84
2022/10/14 07:49:15;;;;;;;;;;;;;;;;;;4993317;28;8423;-83
2022/10/14 07:51:41;;;;;;;;;;;;;;;;;;4993029;28;8434;-84
2022/10/14 07:54:11;;;;;;;;;;;;;;;;;;4992724;28;7231;-84
2022/10/14 07:56:38;;;;;;;;;;;;;;;;;;4994483;28;8499;-84
2022/10/14 07:59:04;;;;;;;;;;;;;;;;;;4993080;28;8833;-86
2022/10/14 08:01:31;;;;;;;;;;;;;;;;;;4993509;28;7437;-84
2022/10/14 08:03:56;;;;;;;;;;;;;;;;;;4992336;28;7170;-84
2022/10/14 08:06:22;;;;;;;;;;;;;;;;;;4992808;28;8413;-84
2022/10/14 08:08:47;;;;;;;;;;;;;;;;;;4992518;28;8618;-84
2022/10/14 08:11:16;;;;;;;;;;;;;;;;;;4992598;28;8476;-84
2022/10/14 08:13:42;;;;;;;;;;;;;;;;;;4992388;28;7812;-84
2022/10/14 08:16:25;;;;;;;;;;;;;;;;;;4992553;28;8446;-85
2022/10/14 08:18:51;;;;;;;;;;;;;;;;;;4992218;28;7183;-84
2022/10/14 08:21:18;;;;;;;;;;;;;;;;;;4992829;28;7262;-84
2022/10/14 08:23:44;;;;;;;;;;;;;;;;;;4992050;28;7204;-87
2022/10/14 08:26:19;;;;;;;;;;;;;;;;;;4993041;28;7300;-84
2022/10/14 08:28:45;;;;;;;;;;;;;;;;;;4992623;28;8485;-83
2022/10/14 08:31:11;;;;;;;;;;;;;;;;;;4992348;28;8501;-85
2022/10/14 08:33:36;;;;;;;;;;;;;;;;;;4993952;28;8533;-77
2022/10/14 08:36:01;;;;;;;;;;;;;;;;;;5003991;28;8574;-77
2022/10/14 08:38:27;;;;;;;;;;;;;;;;;;5016172;28;6882;-82
2022/10/14 08:41:02;;;;;;;;;;;;;;;;;;5006165;28;7353;-81
2022/10/14 08:43:32;;;;;;;;;;;;;;;;;;5012676;28;8421;-86
2022/10/14 08:46:06;;;;;;;;;;;;;;;;;;4997847;28;7161;-78
2022/10/14 08:48:33;;;;;;;;;;;;;;;;;;5017975;28;7217;-83
2022/10/14 08:51:04;;;;;;;;;;;;;;;;;;5012147;28;8420;-83
2022/10/14 08:53:35;;;;;;;;;;;;;;;;;;5005094;28;8481;-82
2022/10/14 08:56:01;;;;;;;;;;;;;;;;;;5008465;28;9737;-84
2022/10/14 08:58:37;;;;;;;;;;;;;;;;;;5011622;28;7058;-83
2022/10/14 09:01:23;;;;;;;;;;;;;;;;;;5028677;28;7031;-84
2022/10/14 09:03:53;;;;;;;;;;;;;;;;;;5015420;28;8304;-87
2022/10/14 09:06:25;;;;;;;;;;;;;;;;;;5014409;28;7140;-83
2022/10/14 09:08:55;;;;;;;;;;;;;;;;;;5014245;28;8311;-86
2022/10/14 09:11:23;;;;;;;;;;;;;;;;;;5014557;28;8571;-86
2022/10/14 09:13:57;;;;;;;;;;;;;;;;;;5014564;28;7329;-86
2022/10/14 09:16:29;;;;;;;;;;;;;;;;;;5015395;28;8416;-86
2022/10/14 09:18:55;;;;;;;;;;;;;;;;;;5015122;28;9048;-86
2022/10/14 09:21:30;;;;;;;;;;;;;;;;;;5031780;28;7190;-86
2022/10/14 09:23:59;;;;;;;;;;;;;;;;;;5032356;28;7159;-84
2022/10/14 09:26:30;;;;;;;;;;;;;;;;;;5016440;28;8662;-84
2022/10/14 09:28:55;;;;;;;;;;;;;;;;;;5021670;28;7249;-78
2022/10/14 09:31:21;;;;;;;;;;;;;;;;;;5019372;28;7142;-86
2022/10/14 09:33:46;;;;;;;;;;;;;;;;;;5017475;28;8566;-84
2022/10/14 09:36:16;;;;;;;;;;;;;;;;;;5016913;28;7229;-88
2022/10/14 09:38:44;;;;;;;;;;;;;;;;;;5017747;28;8527;-84
2022/10/14 09:41:13;;;;;;;;;;;;;;;;;;5014757;28;7219;-85
2022/10/14 09:43:59;;;;;;;;;;;;;;;;;;5015676;28;7144;-87
2022/10/14 09:46:25;;;;;;;;;;;;;;;;;;5016615;28;7162;-81
2022/10/14 09:48:51;;;;;;;;;;;;;;;;;;5017865;28;8472;-84
2022/10/14 09:51:24;;;;;;;;;;;;;;;;;;5016515;28;7173;-86
2022/10/14 09:53:52;;;;;;;;;;;;;;;;;;5016945;28;7145;-85
2022/10/14 09:56:29;;;;;;;;;;;;;;;;;;5016489;28;7895;-85
2022/10/14 09:58:56;;;;;;;;;;;;;;;;;;5014411;28;8094;-86
2022/10/14 10:01:24;;;;;;;;;;;;;;;;;;5017218;28;7437;-83
2022/10/14 10:03:51;;;;;;;;;;;;;;;;;;5016827;28;8572;-86
2022/10/14 10:06:22;;;;;;;;;;;;;;;;;;5014832;28;8508;-85
2022/10/14 10:08:54;;;;;;;;;;;;;;;;;;5015743;28;7283;-85
2022/10/14 10:11:37;;;;;;;;;;;;;;;;;;5031983;28;7391;-86
2022/10/14 10:14:14;;;;;;;;;;;;;;;;;;5016045;28;7983;-87
2022/10/14 10:16:40;;;;;;;;;;;;;;;;;;5033165;28;8401;-84
2022/10/14 10:19:25;;;;;;;;;;;;;;;;;;5016479;28;8361;-82
2022/10/14 10:21:51;;;;;;;;;;;;;;;;;;5031995;28;8458;-86
2022/10/14 10:24:22;;;;;;;;;;;;;;;;;;5015166;28;8414;-86
2022/10/14 10:26:48;;;;;;;;;;;;;;;;;;5006988;28;9029;-81
2022/10/14 10:29:33;;;;;;;;;;;;;;;;;;5011955;28;8426;-78
2022/10/14 10:32:15;;;;;;;;;;;;;;;;;;5023126;28;7202;-80
2022/10/14 10:34:50;;;;;;;;;;;;;;;;;;5024456;28;7057;-85
2022/10/14 10:37:16;;;;;;;;;;;;;;;;;;5038451;28;7133;-86
2022/10/14 10:39:41;;;;;;;;;;;;;;;;;;5041624;28;8377;-77
2022/10/14 10:42:13;;;;;;;;;;;;;;;;;;5039773;28;8535;-82
2022/10/14 10:44:41;;;;;;;;;;;;;;;;;;5039878;28;8476;-83
2022/10/14 10:47:07;;;;;;;;;;;;;;;;;;5037899;28;8397;-78
2022/10/14 10:49:42;;;;;;;;;;;;;;;;;;5043021;28;8682;-78
2022/10/14 10:52:07;;;;;;;;;;;;;;;;;;5033777;28;8427;-86
2022/10/14 10:54:52;;;;;;;;;;;;;;;;;;5032327;28;7152;-76
2022/10/14 10:57:33;;;;;;;;;;;;;;;;;;5018433;28;7153;-83
2022/10/14 11:00:02;;;;;;;;;;;;;;;;;;5037185;28;7020;-78
2022/10/14 11:02:43;;;;;;;;;;;;;;;;;;5040417;28;7217;-78
2022/10/14 11:05:16;;;;;;;;;;;;;;;;;;5042781;28;8969;-79
2022/10/14 11:13:44;;;;;;;;;;;;;;;;;;5023283;28;6929;-82
2022/10/14 11:16:22;;;;;;;;;;;;;;;;;;5035169;28;7167;-84
2022/10/14 11:19:06;;;;;;;;;;;;;;;;;;5036423;28;8713;-84
2022/10/14 11:21:34;;;;;;;;;;;;;;;;;;5019981;28;8673;-85
2022/10/14 11:24:10;;;;;;;;;;;;;;;;;;5037003;28;9729;-87
2022/10/14 11:26:35;;;;;;;;;;;;;;;;;;5020677;28;8500;-85
2022/10/14 11:29:20;;;;;;;;;;;;;;;;;;5035938;28;7132;-84
2022/10/14 11:32:05;;;;;;;;;;;;;;;;;;5035664;28;8410;-86
2022/10/14 11:34:43;;;;;;;;;;;;;;;;;;5006497;28;7300;-87
2022/10/14 11:37:32;;;;;;;;;;;;;;;;;;5032390;28;8353;-85
2022/10/14 11:40:05;;;;;;;;;;;;;;;;;;5012112;28;8411;-87
2022/10/14 11:42:42;;;;;;;;;;;;;;;;;;5016056;28;8599;-85
2022/10/14 11:45:34;;;;;;;;;;;;;;;;;;5016624;28;8404;-84
2022/10/14 11:48:14;;;;;;;;;;;;;;;;;;5015717;28;7050;-85
2022/10/14 11:50:45;;;;;;;;;;;;;;;;;;5032146;28;8412;-77
2022/10/14 11:53:16;;;;;;;;;;;;;;;;;;5016195;28;8753;-84
2022/10/14 11:55:46;;;;;;;;;;;;;;;;;;5015958;28;8408;-85
2022/10/14 11:58:16;;;;;;;;;;;;;;;;;;5015956;28;7037;-85
2022/10/14 12:01:12;;;;;;;;;;;;;;;;;;5015613;28;8410;-84
2022/10/14 12:03:44;;;;;;;;;;;;;;;;;;5031843;28;8619;-82
2022/10/14 12:06:20;;;;;;;;;;;;;;;;;;5032490;28;8434;-85
2022/10/14 12:08:55;;;;;;;;;;;;;;;;;;5016697;28;8482;-83
2022/10/14 12:11:41;;;;;;;;;;;;;;;;;;5016291;28;8443;-87
2022/10/14 12:14:09;;;;;;;;;;;;;;;;;;5016463;28;8418;-86
2022/10/14 12:16:39;;;;;;;;;;;;;;;;;;5032408;28;7041;-86
2022/10/14 12:19:09;;;;;;;;;;;;;;;;;;5015529;28;8337;-86
2022/10/14 12:21:40;;;;;;;;;;;;;;;;;;5014113;28;7240;-85
2022/10/14 12:24:15;;;;;;;;;;;;;;;;;;5015327;28;8501;-86
2022/10/14 12:26:40;;;;;;;;;;;;;;;;;;5015448;28;8586;-85
2022/10/14 12:29:13;;;;;;;;;;;;;;;;;;5031327;28;8436;-85
2022/10/14 12:31:38;;;;;;;;;;;;;;;;;;5015416;28;8447;-87
2022/10/14 12:34:10;;;;;;;;;;;;;;;;;;5014994;28;8381;-87
2022/10/14 12:36:38;;;;;;;;;;;;;;;;;;5032168;28;7053;-86
2022/10/14 12:39:15;;;;;;;;;;;;;;;;;;5015279;28;8647;-85
2022/10/14 12:41:49;;;;;;;;;;;;;;;;;;5031381;28;8776;-86
2022/10/14 12:44:17;;;;;;;;;;;;;;;;;;5015218;28;8680;-86
2022/10/14 12:46:48;;;;;;;;;;;;;;;;;;5014738;28;7030;-85
2022/10/14 12:49:23;;;;;;;;;;;;;;;;;;5014407;28;8533;-86
2022/10/14 12:52:01;;;;;;;;;;;;;;;;;;5014985;28;8615;-86
2022/10/14 12:54:28;;;;;;;;;;;;;;;;;;5015561;28;8486;-85
2022/10/14 12:56:57;;;;;;;;;;;;;;;;;;5014184;28;7079;-82
2022/10/14 12:59:35;;;;;;;;;;;;;;;;;;5014286;28;8657;-86
2022/10/14 13:02:04;;;;;;;;;;;;;;;;;;5014345;28;8515;-84
2022/10/14 13:04:31;;;;;;;;;;;;;;;;;;5014478;28;8534;-84
2022/10/14 13:07:20;;;;;;;;;;;;;;;;;;5014182;28;8453;-85
2022/10/14 13:09:46;;;;;;;;;;;;;;;;;;5004732;28;8467;-85
2022/10/14 13:12:20;;;;;;;;;;;;;;;;;;5014087;28;6995;-84
2022/10/14 13:14:56;;;;;;;;;;;;;;;;;;5030604;28;8424;-84
2022/10/14 13:17:28;;;;;;;;;;;;;;;;;;5031101;28;8386;-85
2022/10/14 13:19:53;;;;;;;;;;;;;;;;;;5014411;28;7178;-84
2022/10/14 13:22:28;;;;;;;;;;;;;;;;;;5014831;28;8398;-84
2022/10/14 13:25:19;;;;;;;;;;;;;;;;;;5030836;28;7151;-85
2022/10/14 13:27:55;;;;;;;;;;;;;;;;;;5012718;28;8392;-85
2022/10/14 13:30:24;;;;;;;;;;;;;;;;;;5014881;28;7267;-84
2022/10/14 13:32:57;;;;;;;;;;;;;;;;;;5030757;28;8715;-85
2022/10/14 13:35:48;;;;;;;;;;;;;;;;;;5013759;28;7147;-84
2022/10/14 13:38:16;;;;;;;;;;;;;;;;;;5013951;28;7480;-84
2022/10/14 13:40:44;;;;;;;;;;;;;;;;;;5017535;28;8324;-84
2022/10/14 13:43:12;;;;;;;;;;;;;;;;;;5018112;28;8422;-85
2022/10/14 13:45:41;;;;;;;;;;;;;;;;;;5034227;28;8760;-86
2022/10/14 13:48:15;;;;;;;;;;;;;;;;;;5017937;28;7027;-86
2022/10/14 13:50:42;;;;;;;;;;;;;;;;;;5019621;28;7198;-86
2022/10/14 13:53:19;;;;;;;;;;;;;;;;;;5019672;28;8787;-86
2022/10/14 13:55:46;;;;;;;;;;;;;;;;;;5019558;28;7236;-84
2022/10/14 13:58:14;;;;;;;;;;;;;;;;;;5021828;28;8701;-83
2022/10/14 14:00:44;;;;;;;;;;;;;;;;;;5023300;28;8433;-82
2022/10/14 14:03:17;;;;;;;;;;;;;;;;;;5026276;28;8537;-80
2022/10/14 14:05:42;;;;;;;;;;;;;;;;;;5028503;28;8405;-83
2022/10/14 14:08:24;;;;;;;;;;;;;;;;;;5025564;28;7108;-79
2022/10/14 14:10:51;;;;;;;;;;;;;;;;;;5010206;28;7354;-77
2022/10/14 14:13:16;;;;;;;;;;;;;;;;;;5026686;28;8459;-85
2022/10/14 14:15:47;;;;;;;;;;;;;;;;;;5026989;28;8472;-84
2022/10/14 14:18:48;;;;;;;;;;;;;;;;;;5025057;28;8728;-85
2022/10/14 14:21:14;;;;;;;;;;;;;;;;;;4927506;29;8696;-83
2022/10/14 14:23:57;;;;;;;;;;;;;;;;;;5004149;28;8466;-87
2022/10/14 14:26:28;;;;;;;;;;;;;;;;;;5001635;28;7793;-86
2022/10/14 14:28:54;;;;;;;;;;;;;;;;;;5001016;28;8376;-84
2022/10/14 14:31:24;;;;;;;;;;;;;;;;;;5001353;28;8448;-85
2022/10/14 14:33:50;;;;;;;;;;;;;;;;;;5017225;28;8741;-84
2022/10/14 14:36:17;;;;;;;;;;;;;;;;;;5016476;28;8396;-84
2022/10/14 14:38:55;;;;;;;;;;;;;;;;;;5016868;28;7182;-84
2022/10/14 14:41:22;;;;;;;;;;;;;;;;;;5016443;28;7181;-82
2022/10/14 14:43:52;;;;;;;;;;;;;;;;;;5015416;28;7160;-82
2022/10/14 14:46:31;;;;;;;;;;;;;;;;;;5015613;28;8426;-84
2022/10/14 14:48:58;;;;;;;;;;;;;;;;;;5016422;28;7198;-82
2022/10/14 14:51:26;;;;;;;;;;;;;;;;;;5015948;28;8473;-82
2022/10/14 14:53:54;;;;;;;;;;;;;;;;;;5015961;28;8465;-84
2022/10/14 14:56:24;;;;;;;;;;;;;;;;;;5016330;28;7180;-82
2022/10/14 14:58:52;;;;;;;;;;;;;;;;;;5015899;28;8360;-82
2022/10/14 15:01:20;;;;;;;;;;;;;;;;;;5015727;28;7165;-84
2022/10/14 15:03:56;;;;;;;;;;;;;;;;;;5016735;28;7156;-83
2022/10/14 15:06:24;;;;;;;;;;;;;;;;;;5016874;28;8417;-83
2022/10/14 15:08:50;;;;;;;;;;;;;;;;;;5003810;28;8429;-84
2022/10/14 15:11:17;;;;;;;;;;;;;;;;;;4996594;28;8408;-82
2022/10/14 15:13:46;;;;;;;;;;;;;;;;;;4980625;28;8403;-85
2022/10/14 15:16:12;;;;;;;;;;;;;;;;;;4999521;28;7063;-83
2022/10/14 15:18:41;;;;;;;;;;;;;;;;;;5000139;28;8461;-84
2022/10/14 15:21:15;;;;;;;;;;;;;;;;;;4999357;28;7054;-83
2022/10/14 15:23:49;;;;;;;;;;;;;;;;;;4999139;28;7196;-84
2022/10/14 15:26:22;;;;;;;;;;;;;;;;;;5014934;28;8475;-84
2022/10/14 15:29:01;;;;;;;;;;;;;;;;;;4999949;28;8710;-84
2022/10/14 15:31:27;;;;;;;;;;;;;;;;;;4999935;28;7442;-85
2022/10/14 15:33:52;;;;;;;;;;;;;;;;;;4999334;28;8512;-83
2022/10/14 15:36:18;;;;;;;;;;;;;;;;;;4999523;28;8413;-82
2022/10/14 15:38:43;;;;;;;;;;;;;;;;;;4999156;28;8759;-85
2022/10/14 15:41:09;;;;;;;;;;;;;;;;;;4999278;28;8426;-85
2022/10/14 15:43:34;;;;;;;;;;;;;;;;;;4999136;28;9120;-85
2022/10/14 15:48:53;;;;;;;;;;;;;;;;;;5016685;28;6957;-85
2022/10/14 15:51:20;;;;;;;;;;;;;;;;;;4998847;28;7139;-85
2022/10/14 15:53:47;;;;;;;;;;;;;;;;;;4999638;28;8751;-86
2022/10/14 15:56:13;;;;;;;;;;;;;;;;;;4999724;28;8998;-86
2022/10/14 15:58:39;;;;;;;;;;;;;;;;;;5016583;28;7126;-84
2022/10/14 16:01:05;;;;;;;;;;;;;;;;;;5000047;28;8558;-82
2022/10/14 16:03:32;;;;;;;;;;;;;;;;;;5000065;28;8388;-86
2022/10/14 16:06:01;;;;;;;;;;;;;;;;;;4999394;28;8535;-86
2022/10/14 16:08:28;;;;;;;;;;;;;;;;;;4999634;28;8645;-82
2022/10/14 16:10:53;;;;;;;;;;;;;;;;;;4999233;28;7183;-84
2022/10/14 16:13:19;;;;;;;;;;;;;;;;;;4999198;28;7405;-83
2022/10/14 16:15:44;;;;;;;;;;;;;;;;;;4998649;28;7025;-84
2022/10/14 16:18:10;;;;;;;;;;;;;;;;;;5015120;28;8371;-86
2022/10/14 16:20:36;;;;;;;;;;;;;;;;;;4999419;28;7134;-84
2022/10/14 16:23:03;;;;;;;;;;;;;;;;;;4999322;28;8625;-84
2022/10/14 16:25:42;;;;;;;;;;;;;;;;;;4998836;28;6997;-84
2022/10/14 16:28:10;;;;;;;;;;;;;;;;;;4998581;28;7076;-84
2022/10/14 16:30:37;;;;;;;;;;;;;;;;;;4998600;28;8467;-82
2022/10/14 16:33:03;;;;;;;;;;;;;;;;;;4998717;28;7213;-84
2022/10/14 16:35:29;;;;;;;;;;;;;;;;;;4998555;28;8775;-85
2022/10/14 16:37:55;;;;;;;;;;;;;;;;;;4999145;28;7209;-84
2022/10/14 16:40:21;;;;;;;;;;;;;;;;;;4998973;28;7309;-85
2022/10/14 16:42:47;;;;;;;;;;;;;;;;;;4998321;28;7036;-85
2022/10/14 16:45:13;;;;;;;;;;;;;;;;;;4998243;28;8297;-85
2022/10/14 16:47:39;;;;;;;;;;;;;;;;;;4998787;28;8410;-83
2022/10/14 16:50:08;;;;;;;;;;;;;;;;;;4998230;28;7125;-85
2022/10/14 16:55:19;;;;;;;;;;;;;;;;;;5016058;28;6804;-85
2022/10/14 16:57:44;;;;;;;;;;;;;;;;;;4998232;28;9556;-83
2022/10/14 17:00:10;;;;;;;;;;;;;;;;;;4998139;28;8426;-84
2022/10/14 17:02:36;;;;;;;;;;;;;;;;;;4988497;28;8392;-84
2022/10/14 17:05:01;;;;;;;;;;;;;;;;;;5009416;28;7195;-85
2022/10/14 17:07:26;;;;;;;;;;;;;;;;;;5014256;28;8390;-85
2022/10/14 17:09:52;;;;;;;;;;;;;;;;;;5014464;28;8525;-85
2022/10/14 17:12:17;;;;;;;;;;;;;;;;;;5014590;28;8473;-84
2022/10/14 17:14:43;;;;;;;;;;;;;;;;;;5014280;28;8391;-86
2022/10/14 17:17:09;;;;;;;;;;;;;;;;;;5016419;28;8684;-85
2022/10/14 17:19:35;;;;;;;;;;;;;;;;;;5017518;28;8602;-88
2022/10/14 17:22:01;;;;;;;;;;;;;;;;;;5017121;28;8375;-82
2022/10/14 17:24:28;;;;;;;;;;;;;;;;;;5024143;28;7329;-77
2022/10/14 17:26:54;;;;;;;;;;;;;;;;;;5021181;28;8385;-82